Time;durP1;ratioP1;P1;durP2;ratioP2;P2;SDS_P1;SDS_P2;PMS_P1;PMS_P2;Temp;Humidity;BMP_temperature;BMP_pressure;BME280_temperature;BME280_humidity;BME280_pressure;Samples;Min_cycle;Max_cycle;Signal;HPM_P1;HPM_P2
2021/12/31 00:01:11;;;;;;;1.73;1.53;;;10.50;99.90;;;;;;5022542;28;20483;-67
2021/12/31 00:03:43;;;;;;;3.10;1.60;;;10.50;99.90;;;;;;5049189;28;20438;-67
2021/12/31 00:06:14;;;;;;;1.50;1.40;;;10.50;99.90;;;;;;5038158;28;20507;-67
2021/12/31 00:08:50;;;;;;;1.37;1.23;;;10.50;99.90;;;;;;5032568;28;20435;-67
2021/12/31 00:11:25;;;;;;;2.07;0.93;;;10.50;99.90;;;;;;5031632;28;20480;-67
2021/12/31 00:14:02;;;;;;;2.10;1.43;;;10.50;99.90;;;;;;5046758;28;20509;-67
2021/12/31 00:16:34;;;;;;;1.50;1.07;;;10.50;99.90;;;;;;5024674;28;20506;-66
2021/12/31 00:19:03;;;;;;;1.73;1.23;;;10.50;99.90;;;;;;5048509;28;20533;-67
2021/12/31 00:21:37;;;;;;;1.80;1.20;;;10.50;99.90;;;;;;5029533;28;20483;-67
2021/12/31 00:24:14;;;;;;;1.33;1.10;;;10.50;99.90;;;;;;5034440;28;20983;-67
2021/12/31 00:26:52;;;;;;;1.20;1.10;;;10.50;99.90;;;;;;5025730;28;20482;-67
2021/12/31 00:29:28;;;;;;;1.40;1.10;;;10.50;99.90;;;;;;5019669;28;20468;-68
2021/12/31 00:32:02;;;;;;;1.40;1.20;;;10.50;99.90;;;;;;5010088;28;20479;-67
2021/12/31 00:34:35;;;;;;;2.97;1.33;;;10.50;99.90;;;;;;5042251;28;20514;-67
2021/12/31 00:37:06;;;;;;;1.27;1.10;;;10.50;99.90;;;;;;5029372;28;20508;-67
2021/12/31 00:39:50;;;;;;;1.40;1.20;;;10.50;99.90;;;;;;5038350;28;20815;-67
2021/12/31 00:42:23;;;;;;;2.07;1.60;;;10.50;99.90;;;;;;5041868;28;21076;-72
2021/12/31 00:45:08;;;;;;;1.47;1.37;;;10.50;99.90;;;;;;5040939;28;20478;-73
2021/12/31 00:47:43;;;;;;;1.60;1.13;;;10.50;99.90;;;;;;5061475;28;20447;-72
2021/12/31 00:50:17;;;;;;;1.23;1.13;;;10.50;99.90;;;;;;5037443;28;20548;-72
2021/12/31 00:52:53;;;;;;;1.40;1.23;;;10.50;99.90;;;;;;5048167;28;20563;-72
2021/12/31 00:55:25;;;;;;;1.03;0.97;;;10.50;99.90;;;;;;5027102;28;20725;-72
2021/12/31 00:57:54;;;;;;;2.10;1.33;;;10.50;99.90;;;;;;5012112;28;20455;-71
2021/12/31 01:00:41;;;;;;;1.30;1.20;;;10.50;99.90;;;;;;5023230;28;20466;-72
2021/12/31 01:03:28;;;;;;;1.73;1.30;;;10.50;99.90;;;;;;5030118;28;20450;-72
2021/12/31 01:06:07;;;;;;;1.43;1.13;;;10.50;99.90;;;;;;5029645;28;20479;-73
2021/12/31 01:08:47;;;;;;;1.80;1.47;;;10.50;99.90;;;;;;5011986;28;20502;-72
2021/12/31 01:11:42;;;;;;;1.93;1.67;;;10.50;99.90;;;;;;5037646;28;20476;-72
2021/12/31 01:14:26;;;;;;;1.50;1.10;;;10.50;99.90;;;;;;5043933;28;21066;-72
2021/12/31 01:17:01;;;;;;;1.63;1.00;;;10.50;99.90;;;;;;5025746;28;20840;-72
2021/12/31 01:19:45;;;;;;;1.23;1.00;;;10.50;99.90;;;;;;5035855;28;20437;-72
2021/12/31 01:22:33;;;;;;;1.40;1.30;;;10.50;99.90;;;;;;5041285;28;20463;-72
2021/12/31 01:25:05;;;;;;;2.43;1.10;;;10.50;99.90;;;;;;5029768;28;20475;-72
2021/12/31 01:27:38;;;;;;;1.57;1.10;;;10.50;99.90;;;;;;5028925;28;20447;-72
2021/12/31 01:30:25;;;;;;;1.33;1.23;;;10.50;99.90;;;;;;5034247;28;20471;-71
2021/12/31 01:33:04;;;;;;;1.60;1.30;;;10.50;99.90;;;;;;5032157;28;20480;-71
2021/12/31 01:35:33;;;;;;;0.87;0.83;;;10.50;99.90;;;;;;5040602;28;20472;-72
2021/12/31 01:38:02;;;;;;;1.50;1.10;;;10.50;99.90;;;;;;5026677;28;20443;-71
2021/12/31 01:40:39;;;;;;;1.33;1.07;;;10.50;99.90;;;;;;5046391;28;20468;-72
2021/12/31 01:43:13;;;;;;;1.57;1.00;;;10.50;99.90;;;;;;5034078;28;20499;-72
2021/12/31 01:45:47;;;;;;;2.80;1.47;;;10.50;99.90;;;;;;5023111;28;20601;-72
2021/12/31 01:48:34;;;;;;;1.93;1.40;;;10.50;99.90;;;;;;5048635;28;20440;-72
2021/12/31 01:51:06;;;;;;;2.03;1.20;;;10.50;99.90;;;;;;5017144;28;20555;-72
2021/12/31 01:53:42;;;;;;;1.63;1.23;;;10.50;99.90;;;;;;5033314;28;20971;-73
2021/12/31 01:56:27;;;;;;;1.20;1.10;;;10.50;99.90;;;;;;5045234;28;20470;-72
2021/12/31 01:59:00;;;;;;;2.83;2.63;;;10.50;99.90;;;;;;5041512;28;20784;-72
2021/12/31 02:01:40;;;;;;;1.60;1.43;;;10.50;99.90;;;;;;5020682;28;20857;-72
2021/12/31 02:04:15;;;;;;;1.00;0.90;;;10.50;99.90;;;;;;5032878;28;20880;-71
2021/12/31 02:06:43;;;;;;;1.33;0.97;;;10.50;99.90;;;;;;5048427;28;20471;-72
2021/12/31 02:09:19;;;;;;;1.27;1.17;;;10.50;99.90;;;;;;5050832;28;20443;-72
2021/12/31 02:11:55;;;;;;;1.40;1.30;;;10.50;99.90;;;;;;5034035;28;20477;-72
2021/12/31 02:14:29;;;;;;;0.90;0.90;;;10.50;99.90;;;;;;5034863;28;20476;-72
2021/12/31 02:17:08;;;;;;;1.23;1.13;;;10.50;99.90;;;;;;5024239;28;20471;-72
2021/12/31 02:19:40;;;;;;;2.33;1.30;;;10.50;99.90;;;;;;5035278;28;20678;-72
2021/12/31 02:22:14;;;;;;;1.20;1.10;;;10.50;99.90;;;;;;5022409;28;20550;-72
2021/12/31 02:24:46;;;;;;;1.10;1.00;;;10.50;99.90;;;;;;5039454;28;20470;-72
2021/12/31 02:27:21;;;;;;;1.50;1.33;;;10.50;99.90;;;;;;5032260;28;20492;-72
2021/12/31 02:29:56;;;;;;;2.43;1.27;;;10.50;99.90;;;;;;5031543;28;20439;-72
2021/12/31 02:32:32;;;;;;;0.97;0.97;;;10.50;99.90;;;;;;5013816;28;20471;-71
2021/12/31 02:35:12;;;;;;;3.00;1.40;;;10.50;99.90;;;;;;5043693;28;20455;-71
2021/12/31 02:37:54;;;;;;;0.87;0.87;;;10.50;99.90;;;;;;5033779;28;20540;-72
2021/12/31 02:40:28;;;;;;;2.40;1.17;;;10.50;99.90;;;;;;5054559;28;20466;-72
2021/12/31 02:43:06;;;;;;;1.70;1.00;;;10.50;99.90;;;;;;5021568;28;20579;-72
2021/12/31 02:45:44;;;;;;;1.63;1.40;;;10.50;99.90;;;;;;5022707;28;20475;-72
2021/12/31 02:48:28;;;;;;;1.20;1.10;;;10.50;99.90;;;;;;5043528;28;20934;-72
2021/12/31 02:51:00;;;;;;;1.60;1.27;;;10.50;99.90;;;;;;5019241;28;20475;-73
2021/12/31 02:53:38;;;;;;;1.70;1.33;;;10.50;99.90;;;;;;5020042;28;20464;-72
2021/12/31 02:56:17;;;;;;;1.70;1.17;;;10.50;99.90;;;;;;5041864;28;20471;-72
2021/12/31 02:58:53;;;;;;;1.10;1.00;;;10.50;99.90;;;;;;5022489;28;20443;-72
2021/12/31 03:01:22;;;;;;;1.20;1.00;;;10.50;99.90;;;;;;5027267;28;20476;-72
2021/12/31 03:04:00;;;;;;;1.80;1.30;;;10.50;99.90;;;;;;5040072;28;20451;-72
2021/12/31 03:06:43;;;;;;;1.47;1.00;;;10.50;99.90;;;;;;5031889;28;20549;-71
2021/12/31 03:09:15;;;;;;;1.27;1.10;;;10.50;99.90;;;;;;5031201;28;21215;-73
2021/12/31 03:11:58;;;;;;;1.40;1.10;;;10.50;99.90;;;;;;5025193;28;20838;-72
2021/12/31 03:14:34;;;;;;;1.10;1.00;;;10.50;99.90;;;;;;5033644;28;20458;-72
2021/12/31 03:17:08;;;;;;;0.80;0.77;;;10.50;99.90;;;;;;5022845;28;20472;-72
2021/12/31 03:19:42;;;;;;;1.37;1.27;;;10.50;99.90;;;;;;5034195;28;20448;-72
2021/12/31 03:22:20;;;;;;;1.23;1.13;;;10.50;99.90;;;;;;5058771;28;20462;-71
2021/12/31 03:24:55;;;;;;;1.17;1.07;;;10.50;99.90;;;;;;5030837;28;20468;-72
2021/12/31 03:27:26;;;;;;;1.97;1.23;;;10.50;99.90;;;;;;5037460;28;20545;-71
2021/12/31 03:29:54;;;;;;;0.93;0.80;;;10.50;99.90;;;;;;5031552;28;20495;-72
2021/12/31 03:32:37;;;;;;;1.43;1.30;;;10.50;99.90;;;;;;5040308;28;20473;-71
2021/12/31 03:35:06;;;;;;;1.23;1.13;;;10.50;99.90;;;;;;5038301;28;20520;-72
2021/12/31 03:37:41;;;;;;;1.30;0.83;;;10.50;99.90;;;;;;5035787;28;20460;-73
2021/12/31 03:40:13;;;;;;;0.97;0.83;;;10.50;99.90;;;;;;5030163;28;20466;-72
2021/12/31 03:42:42;;;;;;;1.30;1.10;;;10.50;99.90;;;;;;5030728;28;20481;-71
2021/12/31 03:45:12;;;;;;;1.77;1.10;;;10.50;99.90;;;;;;5015456;28;20978;-71
2021/12/31 03:47:43;;;;;;;1.20;1.07;;;10.50;99.90;;;;;;5013753;28;20535;-71
2021/12/31 03:50:17;;;;;;;1.57;1.20;;;10.50;99.90;;;;;;5028904;28;20803;-71
2021/12/31 03:52:47;;;;;;;0.90;0.90;;;10.50;99.90;;;;;;5043399;28;20521;-72
2021/12/31 03:55:17;;;;;;;1.80;1.20;;;10.50;99.90;;;;;;5021114;28;20475;-71
2021/12/31 03:57:46;;;;;;;1.33;1.00;;;10.50;99.90;;;;;;5048946;28;20903;-71
2021/12/31 04:00:16;;;;;;;1.67;1.20;;;10.50;99.90;;;;;;5035883;28;20974;-71
2021/12/31 04:02:45;;;;;;;1.23;1.13;;;10.50;99.90;;;;;;5038012;28;20531;-72
2021/12/31 04:05:24;;;;;;;1.07;0.87;;;10.50;99.90;;;;;;5046154;28;20467;-71
2021/12/31 04:07:56;;;;;;;1.97;1.27;;;10.50;99.90;;;;;;5024462;28;21015;-72
2021/12/31 04:10:28;;;;;;;1.20;1.10;;;10.50;99.90;;;;;;5032679;28;20880;-72
2021/12/31 04:13:03;;;;;;;1.50;1.23;;;10.50;99.90;;;;;;5050087;28;20462;-71
2021/12/31 04:15:38;;;;;;;1.13;1.03;;;10.50;99.90;;;;;;5009418;28;20522;-71
2021/12/31 04:18:22;;;;;;;1.63;1.53;;;10.50;99.90;;;;;;5020650;28;21104;-71
2021/12/31 04:20:57;;;;;;;1.30;1.00;;;10.50;99.90;;;;;;5028897;28;20463;-71
2021/12/31 04:23:35;;;;;;;1.37;1.27;;;10.50;99.90;;;;;;5041499;28;20457;-71
2021/12/31 04:26:20;;;;;;;1.63;1.33;;;10.50;99.90;;;;;;5042322;28;20486;-71
2021/12/31 04:28:48;;;;;;;1.97;1.30;;;10.50;99.90;;;;;;5014928;28;20447;-71
2021/12/31 04:31:25;;;;;;;0.90;0.90;;;10.50;99.90;;;;;;5022162;28;20765;-71
2021/12/31 04:34:15;;;;;;;2.70;1.03;;;10.50;99.90;;;;;;5030511;28;20810;-72
2021/12/31 04:36:47;;;;;;;1.40;1.30;;;10.50;99.90;;;;;;5033731;28;20522;-71
2021/12/31 04:39:20;;;;;;;1.30;1.20;;;10.50;99.90;;;;;;5024416;28;20447;-73
2021/12/31 04:42:06;;;;;;;1.50;1.20;;;10.50;99.90;;;;;;5030885;28;20468;-71
2021/12/31 04:44:49;;;;;;;1.10;0.90;;;10.50;99.90;;;;;;5051422;28;20471;-71
2021/12/31 04:47:19;;;;;;;2.03;1.50;;;10.50;99.90;;;;;;5053752;28;20541;-72
2021/12/31 04:49:55;;;;;;;2.73;1.23;;;10.50;99.90;;;;;;5046071;28;20530;-71
2021/12/31 04:52:35;;;;;;;1.50;1.40;;;10.50;99.90;;;;;;5041623;28;21024;-72
2021/12/31 04:55:12;;;;;;;1.43;1.30;;;10.50;99.90;;;;;;5038948;28;20501;-72
2021/12/31 04:57:55;;;;;;;1.30;1.00;;;10.50;99.90;;;;;;5040182;28;20468;-72
2021/12/31 05:00:24;;;;;;;1.37;1.23;;;10.60;99.90;;;;;;5045156;28;20503;-71
2021/12/31 05:02:56;;;;;;;1.37;1.27;;;10.50;99.90;;;;;;5054810;28;20435;-71
2021/12/31 05:05:28;;;;;;;1.50;1.40;;;10.50;99.90;;;;;;5039971;28;20498;-71
2021/12/31 05:08:08;;;;;;;1.40;1.30;;;10.50;99.90;;;;;;5063965;28;20449;-72
2021/12/31 05:10:48;;;;;;;1.93;1.10;;;10.50;99.90;;;;;;5045873;28;20552;-70
2021/12/31 05:13:27;;;;;;;2.70;1.30;;;10.50;99.90;;;;;;5046660;28;20459;-71
2021/12/31 05:16:03;;;;;;;1.43;1.30;;;10.50;99.90;;;;;;5034447;28;20520;-71
2021/12/31 05:18:37;;;;;;;1.67;1.40;;;10.50;99.90;;;;;;5054032;28;20971;-72
2021/12/31 05:21:14;;;;;;;1.87;1.00;;;10.50;99.90;;;;;;5037174;28;20551;-72
2021/12/31 05:23:46;;;;;;;2.10;1.10;;;10.50;99.90;;;;;;5061124;28;20487;-71
2021/12/31 05:26:24;;;;;;;1.63;1.40;;;10.50;99.90;;;;;;5046106;28;20548;-72
2021/12/31 05:29:13;;;;;;;1.90;1.17;;;10.50;99.90;;;;;;5041256;28;20439;-71
2021/12/31 05:31:49;;;;;;;1.80;1.43;;;10.50;99.90;;;;;;5030352;28;20533;-71
2021/12/31 05:34:32;;;;;;;;;;;;;;;;;;;;;
2021/12/31 05:37:02;;;;;;;2.53;1.20;;;10.50;99.90;;;;;;5042256;28;20479;-71
2021/12/31 05:39:33;;;;;;;1.37;1.27;;;10.50;99.90;;;;;;5023438;28;20508;-72
2021/12/31 05:42:05;;;;;;;1.40;1.30;;;10.50;99.90;;;;;;5038031;28;20503;-72
2021/12/31 05:44:39;;;;;;;2.03;1.50;;;10.50;99.90;;;;;;5029019;28;20461;-72
2021/12/31 05:47:11;;;;;;;1.80;1.70;;;10.50;99.90;;;;;;5035389;28;20471;-72
2021/12/31 05:49:43;;;;;;;1.37;1.27;;;10.50;99.90;;;;;;5018046;28;20439;-71
2021/12/31 05:52:15;;;;;;;1.40;1.30;;;10.50;99.90;;;;;;5044743;28;20508;-71
2021/12/31 05:54:44;;;;;;;2.37;1.30;;;10.50;99.90;;;;;;5039155;28;20476;-72
2021/12/31 05:57:24;;;;;;;1.50;1.20;;;10.50;99.90;;;;;;5022113;28;20594;-71
2021/12/31 06:00:04;;;;;;;1.67;1.57;;;10.50;99.90;;;;;;5058332;28;20834;-72
2021/12/31 06:03:00;;;;;;;2.13;1.47;;;10.50;99.90;;;;;;5040782;28;20787;-71
2021/12/31 06:05:31;;;;;;;2.13;1.40;;;10.50;99.90;;;;;;5033828;28;21044;-71
2021/12/31 06:08:07;;;;;;;3.37;1.50;;;10.50;99.90;;;;;;5035795;28;20439;-72
2021/12/31 06:10:41;;;;;;;2.87;1.50;;;10.60;99.90;;;;;;5018558;28;20519;-71
2021/12/31 06:13:20;;;;;;;1.50;1.40;;;10.50;99.90;;;;;;5011438;28;20873;-71
2021/12/31 06:16:10;;;;;;;1.80;1.20;;;10.50;99.90;;;;;;5024076;28;21189;-71
2021/12/31 06:18:45;;;;;;;1.50;1.40;;;10.50;99.90;;;;;;5015757;28;20441;-73
2021/12/31 06:21:35;;;;;;;1.13;1.03;;;10.50;99.90;;;;;;5046911;28;20498;-72
2021/12/31 06:24:15;;;;;;;2.23;1.53;;;10.50;99.90;;;;;;5041416;28;20914;-72
2021/12/31 06:26:54;;;;;;;1.83;1.73;;;10.50;99.90;;;;;;5043897;28;20486;-72
2021/12/31 06:29:42;;;;;;;1.70;1.60;;;10.50;99.90;;;;;;5055293;28;20963;-72
2021/12/31 06:32:14;;;;;;;1.50;1.40;;;10.50;99.90;;;;;;5029032;28;20476;-72
2021/12/31 06:34:46;;;;;;;1.53;1.43;;;10.50;99.90;;;;;;5048361;28;20478;-72
2021/12/31 06:37:15;;;;;;;2.63;1.57;;;10.50;99.90;;;;;;5012355;28;20506;-72
2021/12/31 06:39:49;;;;;;;1.80;1.50;;;10.50;99.90;;;;;;5032392;28;20743;-71
2021/12/31 06:42:20;;;;;;;1.97;1.67;;;10.50;99.90;;;;;;5044383;28;20487;-71
2021/12/31 06:44:49;;;;;;;1.37;1.23;;;10.50;99.90;;;;;;5026233;28;20447;-72
2021/12/31 06:47:22;;;;;;;2.17;1.43;;;10.50;99.90;;;;;;5042094;28;20478;-71
2021/12/31 06:49:51;;;;;;;2.27;1.90;;;10.50;99.90;;;;;;5033223;28;20427;-72
2021/12/31 06:52:20;;;;;;;2.30;1.50;;;10.50;99.90;;;;;;5044363;28;20475;-71
2021/12/31 06:54:53;;;;;;;1.50;1.40;;;10.50;99.90;;;;;;5037796;28;20475;-72
2021/12/31 06:57:34;;;;;;;1.90;1.70;;;10.50;99.90;;;;;;5042367;28;20479;-71
2021/12/31 07:00:06;;;;;;;4.70;1.67;;;10.50;99.90;;;;;;5040116;28;20458;-72
2021/12/31 07:05:48;;;;;;;1.73;1.63;;;10.50;99.90;;;;;;5022195;28;20479;-72
2021/12/31 07:08:38;;;;;;;2.57;1.67;;;10.50;99.90;;;;;;5061875;28;20784;-71
2021/12/31 07:11:27;;;;;;;1.70;1.60;;;10.50;99.90;;;;;;5032044;28;20473;-72
2021/12/31 07:14:04;;;;;;;1.50;1.40;;;10.50;99.90;;;;;;5025399;28;20465;-72
2021/12/31 07:16:36;;;;;;;1.50;1.37;;;10.50;99.90;;;;;;5031338;28;20927;-72
2021/12/31 07:19:09;;;;;;;1.70;1.60;;;10.50;99.90;;;;;;5026070;28;20431;-71
2021/12/31 07:21:44;;;;;;;1.70;1.60;;;10.50;99.90;;;;;;5023546;28;20471;-71
2021/12/31 07:24:15;;;;;;;1.67;1.50;;;10.50;99.90;;;;;;5029681;28;20460;-72
2021/12/31 07:26:58;;;;;;;1.77;1.67;;;10.50;99.90;;;;;;5008445;28;20556;-72
2021/12/31 07:29:44;;;;;;;1.40;1.30;;;10.50;99.90;;;;;;5021313;28;20444;-72
2021/12/31 07:32:26;;;;;;;2.53;2.00;;;10.50;99.90;;;;;;5058190;28;20511;-72
2021/12/31 07:35:02;;;;;;;1.80;1.67;;;10.50;99.90;;;;;;5032411;28;20470;-72
2021/12/31 07:37:37;;;;;;;2.23;1.60;;;10.50;99.90;;;;;;5032675;28;20455;-72
2021/12/31 07:40:13;;;;;;;3.53;2.30;;;10.50;99.90;;;;;;5036190;28;20445;-73
2021/12/31 07:42:52;;;;;;;2.37;1.70;;;10.50;99.90;;;;;;5030619;28;20522;-72
2021/12/31 07:45:22;;;;;;;1.90;1.60;;;10.50;99.90;;;;;;5044544;28;20516;-71
2021/12/31 07:48:01;;;;;;;1.40;1.30;;;10.50;99.90;;;;;;5042795;28;20512;-72
2021/12/31 07:50:43;;;;;;;1.57;1.40;;;10.50;99.90;;;;;;5047948;28;20531;-72
2021/12/31 07:53:12;;;;;;;2.50;1.77;;;10.50;99.90;;;;;;5057518;28;20445;-72
2021/12/31 07:55:56;;;;;;;1.60;1.20;;;10.50;99.90;;;;;;5038722;28;20467;-71
2021/12/31 07:58:34;;;;;;;1.43;1.33;;;10.50;99.90;;;;;;5031943;28;20487;-72
2021/12/31 08:01:09;;;;;;;1.30;1.13;;;10.50;99.90;;;;;;5036099;28;21024;-72
2021/12/31 08:03:38;;;;;;;1.40;1.30;;;10.50;99.90;;;;;;5059434;28;20448;-72
2021/12/31 08:06:22;;;;;;;1.70;1.60;;;10.50;99.90;;;;;;5030467;28;20475;-72
2021/12/31 08:08:51;;;;;;;2.50;1.77;;;10.50;99.90;;;;;;5026311;28;20451;-72
2021/12/31 08:11:30;;;;;;;1.70;1.40;;;10.50;99.90;;;;;;5061437;28;20483;-72
2021/12/31 08:14:05;;;;;;;2.60;1.50;;;10.50;99.90;;;;;;5045628;28;20458;-72
2021/12/31 08:16:38;;;;;;;1.50;1.40;;;10.50;99.90;;;;;;5031891;28;20472;-72
2021/12/31 08:19:34;;;;;;;1.57;1.47;;;10.50;99.90;;;;;;5046168;28;20445;-71
2021/12/31 08:22:08;;;;;;;1.47;1.33;;;10.50;99.90;;;;;;5061355;28;20565;-72
2021/12/31 08:24:40;;;;;;;2.00;1.80;;;10.50;99.90;;;;;;5022494;28;20894;-72
2021/12/31 08:27:12;;;;;;;1.97;1.50;;;10.50;99.90;;;;;;5038399;28;20467;-73
2021/12/31 08:29:47;;;;;;;1.47;1.37;;;10.50;99.90;;;;;;5042081;28;20458;-72
2021/12/31 08:32:16;;;;;;;1.57;1.47;;;10.50;99.90;;;;;;5057079;28;20840;-73
2021/12/31 08:34:52;;;;;;;1.40;1.30;;;10.50;99.90;;;;;;5030169;28;20455;-73
2021/12/31 08:37:32;;;;;;;1.50;1.33;;;10.50;99.90;;;;;;5045854;28;20471;-72
2021/12/31 08:40:01;;;;;;;1.70;1.60;;;10.50;99.90;;;;;;5039324;28;20460;-72
2021/12/31 08:42:38;;;;;;;1.87;1.30;;;10.50;99.90;;;;;;5030806;28;20451;-71
2021/12/31 08:45:20;;;;;;;1.23;1.13;;;10.50;99.90;;;;;;5034135;28;20466;-71
2021/12/31 08:47:51;;;;;;;1.60;1.50;;;10.50;99.90;;;;;;5047001;28;20446;-72
2021/12/31 08:50:26;;;;;;;1.50;1.40;;;10.50;99.90;;;;;;5044039;28;21177;-71
2021/12/31 08:53:04;;;;;;;2.63;1.30;;;10.50;99.90;;;;;;5030576;28;20466;-72
2021/12/31 08:55:40;;;;;;;1.60;1.30;;;10.50;99.90;;;;;;5019688;28;20553;-72
2021/12/31 08:58:17;;;;;;;1.53;1.43;;;10.50;99.90;;;;;;5031965;28;20428;-72
2021/12/31 09:01:22;;;;;;;1.90;1.60;;;10.50;99.90;;;;;;5039979;28;20470;-71
2021/12/31 09:03:59;;;;;;;2.40;1.60;;;10.50;99.90;;;;;;5044219;28;20516;-71
2021/12/31 09:06:34;;;;;;;1.67;1.57;;;10.50;99.90;;;;;;5033777;28;20480;-73
2021/12/31 09:09:04;;;;;;;2.00;1.80;;;10.50;99.90;;;;;;5048762;28;20529;-72
2021/12/31 09:11:43;;;;;;;1.63;1.30;;;10.50;99.90;;;;;;5051965;28;20614;-73
2021/12/31 09:14:21;;;;;;;1.50;1.40;;;10.50;99.90;;;;;;5037568;28;20482;-72
2021/12/31 09:17:01;;;;;;;1.97;1.87;;;10.50;99.90;;;;;;5039049;28;21032;-71
2021/12/31 09:19:44;;;;;;;1.80;1.70;;;10.50;99.90;;;;;;5064873;28;20478;-72
2021/12/31 09:22:15;;;;;;;2.37;1.70;;;10.50;99.90;;;;;;5041046;28;20463;-71
2021/12/31 09:24:59;;;;;;;2.20;1.67;;;10.50;99.90;;;;;;5028253;28;20466;-71
2021/12/31 09:27:45;;;;;;;1.80;1.70;;;10.50;99.90;;;;;;5011065;28;20566;-71
2021/12/31 09:30:17;;;;;;;1.50;1.40;;;10.60;99.90;;;;;;5036649;28;20448;-71
2021/12/31 09:36:07;;;;;;;2.03;1.67;;;10.50;99.90;;;;;;5036194;28;20470;-71
2021/12/31 09:38:48;;;;;;;1.70;1.60;;;10.50;99.90;;;;;;5026649;28;20432;-72
2021/12/31 09:41:43;;;;;;;1.60;1.50;;;10.50;99.90;;;;;;5035055;28;20482;-73
2021/12/31 09:44:28;;;;;;;1.70;1.57;;;10.50;99.90;;;;;;5037480;28;20462;-72
2021/12/31 09:47:09;;;;;;;;;;;;;;;;;;;;;
2021/12/31 09:49:39;;;;;;;2.27;1.67;;;10.50;99.90;;;;;;5031545;28;20454;-71
2021/12/31 09:52:16;;;;;;;1.60;1.50;;;10.50;99.90;;;;;;5026062;28;20810;-71
2021/12/31 09:54:52;;;;;;;1.50;1.40;;;10.50;99.90;;;;;;5031154;28;20480;-72
2021/12/31 09:57:31;;;;;;;1.70;1.60;;;10.60;99.90;;;;;;5044912;28;20487;-72
2021/12/31 10:00:15;;;;;;;1.60;1.50;;;10.50;99.90;;;;;;5008176;28;20481;-72
2021/12/31 10:03:18;;;;;;;1.43;1.33;;;10.60;99.90;;;;;;5041362;28;20492;-72
2021/12/31 10:05:58;;;;;;;1.47;1.37;;;10.60;99.90;;;;;;5041750;28;20468;-72
2021/12/31 10:08:32;;;;;;;1.50;1.30;;;10.60;99.90;;;;;;5039534;28;20443;-73
2021/12/31 10:11:17;;;;;;;2.93;1.67;;;10.60;99.90;;;;;;5034603;28;20560;-71
2021/12/31 10:14:11;;;;;;;1.93;1.73;;;10.60;99.90;;;;;;5048650;28;20435;-71
2021/12/31 10:16:43;;;;;;;2.00;1.30;;;10.50;99.90;;;;;;5028255;28;20562;-71
2021/12/31 10:19:21;;;;;;;1.67;1.57;;;10.50;99.90;;;;;;5042983;28;20943;-71
2021/12/31 10:21:58;;;;;;;1.90;1.70;;;10.60;99.90;;;;;;5027598;28;20574;-72
2021/12/31 10:24:51;;;;;;;1.70;1.60;;;10.60;99.90;;;;;;5045649;28;20467;-72
2021/12/31 10:27:38;;;;;;;2.30;1.63;;;10.60;99.90;;;;;;5048765;28;20466;-72
2021/12/31 10:30:30;;;;;;;1.80;1.70;;;10.60;99.90;;;;;;5050762;28;20514;-71
2021/12/31 10:33:32;;;;;;;2.30;1.73;;;10.60;99.90;;;;;;5059778;28;20465;-66
2021/12/31 10:36:42;;;;;;;1.73;1.63;;;10.60;99.90;;;;;;5048663;28;20483;-65
2021/12/31 10:39:21;;;;;;;1.60;1.50;;;10.60;99.90;;;;;;5051952;28;20501;-66
2021/12/31 10:45:06;;;;;;;1.60;1.50;;;10.60;99.90;;;;;;5047188;28;20552;-64
2021/12/31 10:47:43;;;;;;;1.60;1.50;;;10.60;99.90;;;;;;5056955;28;20486;-66
2021/12/31 10:50:32;;;;;;;2.23;2.03;;;10.60;99.90;;;;;;5033889;28;21353;-67
2021/12/31 10:53:11;;;;;;;1.40;1.30;;;10.60;99.90;;;;;;5056054;28;20473;-67
2021/12/31 10:55:49;;;;;;;1.50;1.40;;;10.60;99.90;;;;;;5046761;28;20900;-66
2021/12/31 10:58:33;;;;;;;1.50;1.40;;;10.60;99.90;;;;;;5065374;28;20450;-66
2021/12/31 11:01:12;;;;;;;1.60;1.50;;;10.60;99.90;;;;;;5038787;28;20519;-66
2021/12/31 11:04:09;;;;;;;1.87;1.20;;;10.60;99.90;;;;;;5072844;28;20452;-66
2021/12/31 11:06:42;;;;;;;1.30;1.20;;;10.60;99.90;;;;;;5049611;28;21002;-66
2021/12/31 11:09:26;;;;;;;1.27;1.17;;;10.60;99.90;;;;;;5067376;28;20537;-66
2021/12/31 11:12:31;;;;;;;2.63;1.73;;;10.60;99.90;;;;;;5064189;28;21109;-66
2021/12/31 11:15:13;;;;;;;1.67;1.57;;;10.60;99.90;;;;;;5045400;28;20468;-67
2021/12/31 11:18:23;;;;;;;1.20;1.10;;;10.60;99.90;;;;;;5049770;28;20461;-67
2021/12/31 11:21:16;;;;;;;1.73;1.37;;;10.60;99.90;;;;;;5057163;28;20853;-66
2021/12/31 11:23:51;;;;;;;1.73;1.60;;;10.60;99.90;;;;;;5050303;28;20901;-66
2021/12/31 11:29:28;;;;;;;2.13;1.20;;;10.60;99.90;;;;;;5049447;28;21105;-68
2021/12/31 11:31:59;;;;;;;1.47;1.37;;;10.60;99.90;;;;;;5038317;28;20494;-66
2021/12/31 11:34:31;;;;;;;1.63;1.53;;;10.60;99.90;;;;;;5046869;28;20991;-67
2021/12/31 11:37:04;;;;;;;2.43;1.80;;;10.60;99.90;;;;;;5035734;28;20476;-66
2021/12/31 11:39:42;;;;;;;1.80;1.50;;;10.60;99.90;;;;;;5044566;28;20447;-66
2021/12/31 11:42:13;;;;;;;2.00;1.80;;;10.60;99.90;;;;;;5040552;28;20480;-66
2021/12/31 11:45:03;;;;;;;1.30;1.20;;;10.60;99.90;;;;;;5033968;28;20463;-67
2021/12/31 11:47:42;;;;;;;2.10;1.60;;;10.60;99.90;;;;;;5042831;28;20536;-66
2021/12/31 11:50:29;;;;;;;1.67;1.33;;;10.60;99.90;;;;;;5031578;28;20533;-67
2021/12/31 11:53:20;;;;;;;1.90;1.80;;;10.60;99.90;;;;;;5069263;28;20436;-66
2021/12/31 11:56:10;;;;;;;1.83;1.67;;;10.60;99.90;;;;;;5054025;28;20473;-66
2021/12/31 11:59:03;;;;;;;1.77;1.67;;;10.60;99.90;;;;;;5038208;28;20431;-67
2021/12/31 12:04:46;;;;;;;1.60;1.40;;;10.60;99.90;;;;;;5029313;28;20463;-66
2021/12/31 12:10:29;;;;;;;1.70;1.60;;;10.70;99.90;;;;;;5070148;28;20465;-66
2021/12/31 12:13:32;;;;;;;1.50;1.40;;;10.70;99.90;;;;;;5046747;28;20440;-66
2021/12/31 12:16:14;;;;;;;1.87;1.77;;;10.70;99.90;;;;;;5039996;28;21004;-66
2021/12/31 12:18:59;;;;;;;2.00;1.73;;;10.60;99.90;;;;;;5040504;28;20502;-67
2021/12/31 12:21:37;;;;;;;1.30;1.20;;;10.70;99.90;;;;;;5048460;28;20462;-66
2021/12/31 12:24:08;;;;;;;1.47;1.37;;;10.70;99.90;;;;;;5048202;28;20471;-66
2021/12/31 12:26:42;;;;;;;2.07;1.70;;;10.70;99.90;;;;;;5049275;28;20459;-66
2021/12/31 12:29:26;;;;;;;1.47;1.37;;;10.70;99.90;;;;;;5048828;28;20450;-66
2021/12/31 12:32:16;;;;;;;1.87;1.53;;;10.60;99.90;;;;;;5034846;28;20478;-66
2021/12/31 12:34:55;;;;;;;1.70;1.60;;;10.70;99.90;;;;;;5049463;28;20582;-66
2021/12/31 12:37:39;;;;;;;1.30;1.20;;;10.70;99.90;;;;;;5048683;28;20853;-67
2021/12/31 12:40:21;;;;;;;1.40;1.30;;;10.60;99.90;;;;;;5032020;28;21095;-65
2021/12/31 12:42:55;;;;;;;1.50;1.40;;;10.70;99.90;;;;;;5047435;28;20431;-66
2021/12/31 12:45:34;;;;;;;2.50;1.40;;;10.70;99.90;;;;;;5045139;28;21191;-66
2021/12/31 12:48:03;;;;;;;1.53;1.40;;;10.60;99.90;;;;;;5047910;28;20786;-66
2021/12/31 12:50:32;;;;;;;1.70;1.60;;;10.70;99.90;;;;;;5026638;28;20462;-66
2021/12/31 12:53:22;;;;;;;2.30;1.50;;;10.70;99.90;;;;;;5068054;28;20526;-66
2021/12/31 12:56:07;;;;;;;1.60;1.50;;;10.70;99.90;;;;;;5045834;28;20486;-67
2021/12/31 12:58:53;;;;;;;1.40;1.10;;;10.70;99.90;;;;;;5052061;28;20479;-66
2021/12/31 13:01:34;;;;;;;1.57;1.47;;;10.80;99.90;;;;;;5037408;28;20498;-68
2021/12/31 13:04:05;;;;;;;1.10;1.00;;;10.90;99.90;;;;;;5047397;28;20561;-68
2021/12/31 13:06:35;;;;;;;1.90;1.40;;;11.10;99.90;;;;;;5048219;28;20505;-68
2021/12/31 13:09:12;;;;;;;3.03;1.73;;;11.20;99.90;;;;;;5043000;28;20446;-68
2021/12/31 13:11:46;;;;;;;3.17;1.20;;;11.40;99.90;;;;;;5035925;28;20471;-71
2021/12/31 13:14:19;;;;;;;2.70;1.10;;;11.40;99.90;;;;;;5048534;28;20540;-72
2021/12/31 13:16:50;;;;;;;1.90;1.70;;;11.50;99.90;;;;;;5027729;28;20473;-71
2021/12/31 13:19:33;;;;;;;1.63;1.10;;;11.50;99.90;;;;;;5048099;28;20592;-72
2021/12/31 13:22:04;;;;;;;2.20;1.57;;;11.60;99.90;;;;;;5043314;28;20473;-72
2021/12/31 13:24:33;;;;;;;2.00;1.80;;;11.60;99.90;;;;;;5030111;28;20465;-74
2021/12/31 13:27:05;;;;;;;2.47;1.80;;;11.60;99.90;;;;;;5047112;28;20470;-72
2021/12/31 13:29:37;;;;;;;2.37;1.90;;;11.60;99.90;;;;;;5049837;28;20435;-71
2021/12/31 13:32:07;;;;;;;2.50;1.60;;;11.60;99.90;;;;;;5048798;28;20468;-71
2021/12/31 13:34:46;;;;;;;3.13;2.13;;;11.60;99.90;;;;;;5077298;28;20493;-72
2021/12/31 13:37:26;;;;;;;5.10;3.17;;;11.60;99.90;;;;;;5051443;28;20474;-72
2021/12/31 13:40:07;;;;;;;2.27;2.07;;;11.60;99.90;;;;;;5038176;28;20844;-72
2021/12/31 13:42:40;;;;;;;6.30;2.60;;;11.60;99.90;;;;;;5041554;28;20491;-73
2021/12/31 13:45:21;;;;;;;4.70;2.47;;;11.60;99.90;;;;;;5075304;28;20520;-72
2021/12/31 13:48:12;;;;;;;4.30;3.90;;;11.70;99.90;;;;;;5051707;28;20463;-72
2021/12/31 13:50:42;;;;;;;2.07;1.80;;;11.70;99.90;;;;;;5035582;28;21041;-73
2021/12/31 13:53:36;;;;;;;3.03;2.37;;;11.70;99.90;;;;;;5047799;28;20451;-73
2021/12/31 13:56:07;;;;;;;6.03;2.50;;;11.70;99.90;;;;;;5027554;28;20464;-72
2021/12/31 13:58:40;;;;;;;2.10;1.90;;;11.70;99.90;;;;;;5075681;28;20527;-71
2021/12/31 14:01:13;;;;;;;3.83;1.83;;;11.70;99.90;;;;;;5035198;28;20482;-72